Time;durP1;ratioP1;P1;durP2;ratioP2;P2;SDS_P1;SDS_P2;PMS_P1;PMS_P2;Temp;Humidity;BMP_temperature;BMP_pressure;BME280_temperature;BME280_humidity;BME280_pressure;Samples;Min_cycle;Max_cycle;Signal;HPM_P1;HPM_P2
2021/03/12 00:01:31;;;;;;;52.30;29.45;;;;;;;2.85;47.06;96883.93;1801678;79;21124;-76
2021/03/12 00:04:01;;;;;;;47.62;29.82;;;;;;;2.92;46.59;96882.67;1801114;80;21255;-76
2021/03/12 00:06:30;;;;;;;45.83;24.45;;;;;;;2.97;46.74;96881.13;1798105;79;21161;-77
2021/03/12 00:08:57;;;;;;;48.17;30.02;;;;;;;2.98;46.77;96880.21;1795186;79;21271;-76
2021/03/12 00:11:28;;;;;;;52.93;30.55;;;;;;;2.98;47.48;96878.91;1794214;80;21244;-81
2021/03/12 00:13:56;;;;;;;51.55;28.40;;;;;;;3.04;47.19;96869.45;1799593;78;21272;-76
2021/03/12 00:16:24;;;;;;;53.95;31.40;;;;;;;3.07;46.91;96873.66;1796406;80;21180;-80
2021/03/12 00:18:52;;;;;;;55.70;31.10;;;;;;;3.08;47.05;96876.64;1818192;78;21140;-78
2021/03/12 00:21:21;;;;;;;52.45;30.23;;;;;;;3.11;47.07;96879.09;1760772;81;21258;-78
2021/03/12 00:23:49;;;;;;;38.63;22.73;;;;;;;3.17;46.97;96872.72;1759971;81;21156;-78
2021/03/12 00:26:17;;;;;;;54.88;31.42;;;;;;;3.22;46.83;96872.85;1769683;81;21159;-77
2021/03/12 00:28:45;;;;;;;49.73;27.75;;;;;;;3.16;46.77;96866.65;1769662;81;21148;-77
2021/03/12 00:31:13;;;;;;;50.23;30.90;;;;;;;3.11;46.78;96859.56;1771056;81;21125;-79
2021/03/12 00:33:41;;;;;;;51.92;30.37;;;;;;;3.11;46.84;96852.57;1751260;81;21137;-78
2021/03/12 00:36:10;;;;;;;57.75;34.15;;;;;;;3.15;47.01;96841.55;1741196;82;21172;-78
2021/03/12 00:38:38;;;;;;;47.17;27.02;;;;;;;3.20;47.12;96842.61;1741148;82;21101;-77
2021/03/12 00:41:09;;;;;;;50.67;30.75;;;;;;;3.23;46.87;96838.06;1740862;82;21131;-77
2021/03/12 00:44:00;;;;;;;58.00;34.08;;;;;;;3.32;47.66;96834.09;1809890;79;24898;-78
2021/03/12 00:46:31;;;;;;;47.85;29.57;;;;;;;3.28;47.67;96824.31;1753369;82;21169;-76
2021/03/12 00:49:02;;;;;;;51.10;28.17;;;;;;;3.30;46.85;96819.00;1754737;82;21176;-76
2021/03/12 00:51:32;;;;;;;52.13;30.92;;;;;;;3.27;47.11;96807.47;1711453;84;21144;-78
2021/03/12 00:54:02;;;;;;;54.27;32.58;;;;;;;3.27;47.16;96800.95;1709985;84;21168;-78
2021/03/12 00:56:31;;;;;;;50.80;30.37;;;;;;;3.25;47.33;96789.77;1710757;84;21262;-77
2021/03/12 00:59:01;;;;;;;49.88;28.98;;;;;;;3.26;47.34;96795.37;1710439;84;21242;-77
2021/03/12 01:01:30;;;;;;;55.38;31.23;;;;;;;3.20;47.67;96787.42;1709834;84;21313;-77
2021/03/12 01:03:59;;;;;;;48.02;29.35;;;;;;;3.18;47.52;96787.14;1709841;84;21330;-78
2021/03/12 01:06:27;;;;;;;47.43;29.57;;;;;;;3.12;47.40;96793.05;1710232;84;21147;-78
2021/03/12 01:08:56;;;;;;;48.08;27.00;;;;;;;3.07;47.39;96782.06;1709293;84;21136;-78
2021/03/12 01:11:26;;;;;;;46.48;28.92;;;;;;;3.05;47.81;96782.59;1710104;84;21175;-77
2021/03/12 01:13:54;;;;;;;49.03;27.82;;;;;;;3.05;47.43;96773.48;1710641;84;21159;-76
2021/03/12 01:16:23;;;;;;;44.50;27.95;;;;;;;3.02;47.37;96765.83;1710392;84;21286;-78
2021/03/12 01:18:52;;;;;;;51.00;27.87;;;;;;;3.02;47.53;96769.73;1680072;84;21167;-78
2021/03/12 01:21:21;;;;;;;50.58;28.60;;;;;;;3.02;47.48;96763.23;1709754;84;21687;-77
2021/03/12 01:23:51;;;;;;;49.10;29.40;;;;;;;3.01;47.45;96758.97;1709501;84;21302;-77
2021/03/12 01:26:20;;;;;;;44.23;25.72;;;;;;;3.01;47.38;96744.65;1652680;84;21120;-78
2021/03/12 01:28:49;;;;;;;52.62;29.07;;;;;;;3.03;47.38;96740.17;1681354;84;21171;-77
2021/03/12 01:31:19;;;;;;;32.83;18.23;;;;;;;3.07;47.43;96733.02;1673398;86;21219;-77
2021/03/12 01:34:01;;;;;;;46.48;27.82;;;;;;;3.18;47.25;96711.13;1822509;78;23908;-77
2021/03/12 01:36:31;;;;;;;53.63;28.32;;;;;;;3.11;47.36;96719.74;1794993;80;21283;-78
2021/03/12 01:39:01;;;;;;;45.80;26.73;;;;;;;3.12;47.39;96710.19;1795400;80;21266;-79
2021/03/12 01:41:29;;;;;;;43.40;26.12;;;;;;;3.18;47.15;96711.13;1736227;81;21231;-78
2021/03/12 01:43:57;;;;;;;47.83;27.58;;;;;;;3.16;47.34;96712.97;1762801;81;21163;-78
2021/03/12 01:46:26;;;;;;;41.02;26.80;;;;;;;3.19;47.40;96711.98;1762307;81;21319;-79
2021/03/12 01:48:54;;;;;;;45.28;24.60;;;;;;;3.24;47.27;96702.98;1762548;81;21290;-78
2021/03/12 01:51:23;;;;;;;41.13;26.48;;;;;;;3.31;47.40;96712.56;1732859;81;21172;-76
2021/03/12 01:53:51;;;;;;;63.48;31.05;;;;;;;3.36;47.43;96717.07;1734155;81;21143;-77
2021/03/12 01:56:19;;;;;;;53.17;32.42;;;;;;;3.41;47.50;96708.52;1764074;81;21130;-77
2021/03/12 01:58:49;;;;;;;54.90;32.53;;;;;;;3.46;47.54;96705.64;1734607;81;21162;-77
2021/03/12 02:01:19;;;;;;;64.97;37.53;;;;;;;3.47;47.60;96707.80;1762153;81;21281;-77
2021/03/12 02:03:54;;;;;;;;;;;;;;;3.50;47.66;96697.17;1765312;81;21151;-78
2021/03/12 02:06:24;;;;;;;70.83;38.67;;;;;;;3.52;48.23;96687.06;1761170;81;20130;-76
2021/03/12 02:08:52;;;;;;;56.70;30.65;;;;;;;3.49;47.75;96687.67;1733822;81;21111;-78
2021/03/12 02:12:04;;;;;;;63.85;37.50;;;;;;;3.53;47.28;96673.08;1840311;77;25037;-78
2021/03/12 02:14:42;;;;;;;63.33;38.08;;;;;;;3.46;47.67;96668.33;1814351;78;21175;-79
2021/03/12 02:17:15;;;;;;;68.60;37.28;;;;;;;3.43;47.75;96671.48;1799811;78;21158;-78
2021/03/12 02:20:34;;;;;;;72.10;38.33;;;;;;;3.44;47.83;96679.68;1823852;78;21163;-78
2021/03/12 02:23:39;;;;;;;64.92;40.10;;;;;;;3.47;47.86;96671.31;1730831;81;21171;-77
2021/03/12 02:26:20;;;;;;;68.80;42.78;;;;;;;3.51;48.07;96674.10;1733068;80;21614;-77
2021/03/12 02:28:52;;;;;;;76.42;39.60;;;;;;;3.53;48.06;96676.16;1782184;80;21158;-77
2021/03/12 02:31:22;;;;;;;67.37;39.63;;;;;;;3.55;47.80;96675.61;1768358;80;21107;-79
2021/03/12 02:33:52;;;;;;;73.22;43.00;;;;;;;3.52;48.00;96680.55;1766211;80;21191;-78
2021/03/12 02:36:23;;;;;;;74.75;44.45;;;;;;;3.53;47.99;96682.20;1791011;80;21144;-78
2021/03/12 02:38:56;;;;;;;75.17;46.10;;;;;;;3.56;48.06;96689.02;1789303;80;21175;-78
2021/03/12 02:41:27;;;;;;;74.67;44.33;;;;;;;3.58;47.98;96688.44;1765746;80;21235;-77
2021/03/12 02:43:57;;;;;;;75.30;42.55;;;;;;;3.61;47.83;96690.05;1731790;82;21334;-79
2021/03/12 02:46:29;;;;;;;74.32;45.52;;;;;;;3.56;47.81;96692.93;1740467;80;21156;-77
2021/03/12 02:48:59;;;;;;;77.85;45.35;;;;;;;3.56;47.95;96697.66;1782180;80;21266;-76
2021/03/12 02:51:28;;;;;;;70.45;41.05;;;;;;;3.59;47.99;96697.50;1759290;80;21270;-78
2021/03/12 02:53:56;;;;;;;69.10;42.88;;;;;;;3.61;48.04;96687.45;1778205;80;21389;-77
2021/03/12 02:56:26;;;;;;;80.35;44.65;;;;;;;3.61;48.03;96698.70;1759138;80;21162;-77
2021/03/12 02:58:56;;;;;;;70.10;41.88;;;;;;;3.65;48.07;96692.84;1745796;81;21167;-76
2021/03/12 03:01:27;;;;;;;63.70;34.92;;;;;;;3.65;48.43;96690.23;1715243;81;21173;-78
2021/03/12 03:04:20;;;;;;;57.45;37.20;;;;;;;3.63;48.00;96688.17;1822155;79;24094;-77
2021/03/12 03:06:51;;;;;;;62.93;37.28;;;;;;;3.51;48.29;96698.86;1782376;79;21163;-78
2021/03/12 03:09:20;;;;;;;55.30;33.70;;;;;;;3.48;48.24;96705.58;1795482;80;21155;-79
2021/03/12 03:11:50;;;;;;;50.23;29.27;;;;;;;3.47;47.80;96719.53;1776090;80;21149;-77
2021/03/12 03:14:19;;;;;;;56.98;34.75;;;;;;;3.39;47.78;96737.72;1764066;80;21563;-78
2021/03/12 03:16:49;;;;;;;55.65;35.43;;;;;;;3.39;47.88;96740.32;1764217;81;21195;-78
2021/03/12 03:19:18;;;;;;;59.65;35.58;;;;;;;3.44;48.08;96745.27;1776608;80;21136;-77
2021/03/12 03:21:48;;;;;;;60.83;37.60;;;;;;;3.49;47.87;96758.89;1763866;81;21143;-76
2021/03/12 03:24:16;;;;;;;62.65;36.90;;;;;;;3.53;48.22;96775.19;1763812;81;21604;-79
2021/03/12 03:26:45;;;;;;;62.40;37.88;;;;;;;3.58;48.37;96795.30;1764117;81;21134;-78
2021/03/12 03:29:15;;;;;;;65.32;40.50;;;;;;;3.61;48.41;96814.69;1764088;81;21139;-78
2021/03/12 03:31:47;;;;;;;62.55;39.63;;;;;;;3.63;48.43;96818.05;1733408;81;21163;-78
2021/03/12 03:34:16;;;;;;;66.17;39.25;;;;;;;3.66;48.18;96816.59;1764113;81;21711;-77
2021/03/12 03:36:46;;;;;;;65.83;41.68;;;;;;;3.66;48.83;96815.73;1764142;81;21295;-78
2021/03/12 03:39:15;;;;;;;69.85;43.38;;;;;;;3.68;48.87;96816.02;1771089;80;21551;-78
2021/03/12 03:41:50;;;;;;;68.17;44.30;;;;;;;3.69;49.83;96827.30;1793446;80;21136;-79
2021/03/12 03:44:26;;;;;;;74.97;41.63;;;;;;;3.67;49.85;96818.23;1774678;80;21235;-78
2021/03/12 03:46:57;;;;;;;63.58;40.83;;;;;;;3.62;50.57;96817.67;1760412;81;21176;-77
2021/03/12 03:49:30;;;;;;;66.87;37.23;;;;;;;3.61;50.53;96815.16;1747982;81;21273;-78
2021/03/12 03:51:58;;;;;;;67.60;38.95;;;;;;;3.55;50.81;96807.23;1749151;82;21326;-77
2021/03/12 03:54:30;;;;;;;64.75;36.95;;;;;;;3.42;51.33;96818.33;1748342;82;21281;-77
2021/03/12 03:57:00;;;;;;;62.40;40.23;;;;;;;3.28;52.62;96823.01;1748522;82;21170;-77
2021/03/12 03:59:31;;;;;;;57.38;34.30;;;;;;;3.17;54.51;96817.54;1749052;82;21147;-77
2021/03/12 04:02:00;;;;;;;50.08;29.05;;;;;;;3.05;53.21;96820.36;1755338;81;21303;-77
2021/03/12 04:04:40;;;;;;;50.20;29.15;;;;;;;2.89;54.47;96813.83;1706565;83;21149;-78
2021/03/12 04:07:26;;;;;;;52.05;32.50;;;;;;;2.76;54.38;96808.92;1721376;83;21257;-77
2021/03/12 04:09:56;;;;;;;53.00;32.10;;;;;;;2.63;58.10;96811.34;1721222;83;21176;-75
2021/03/12 04:12:26;;;;;;;53.28;29.32;;;;;;;2.56;57.89;96808.22;1692263;83;21172;-78
2021/03/12 04:14:57;;;;;;;46.75;27.93;;;;;;;2.47;60.35;96796.52;1720128;83;21291;-77
2021/03/12 04:17:25;;;;;;;44.93;27.70;;;;;;;2.36;57.66;96801.46;1719891;82;21164;-76
2021/03/12 04:19:55;;;;;;;44.58;26.12;;;;;;;2.31;59.21;96806.05;1706137;83;21139;-76
2021/03/12 04:22:23;;;;;;;37.58;23.02;;;;;;;2.26;58.69;96802.85;1719419;83;21162;-77
2021/03/12 04:24:53;;;;;;;37.10;24.55;;;;;;;2.22;58.60;96796.97;1720765;82;21268;-77
2021/03/12 04:27:23;;;;;;;43.73;27.85;;;;;;;2.15;58.71;96792.98;1720386;83;21158;-76
2021/03/12 04:29:53;;;;;;;41.83;25.82;;;;;;;2.10;62.98;96796.29;1747100;82;21145;-77
2021/03/12 04:32:23;;;;;;;40.85;22.52;;;;;;;2.07;61.15;96794.69;1719474;82;21091;-77
2021/03/12 04:34:51;;;;;;;41.20;26.55;;;;;;;2.03;60.12;96788.81;1727212;82;21143;-78
2021/03/12 04:37:20;;;;;;;36.77;24.77;;;;;;;2.06;59.55;96788.25;1759382;81;21135;-79
2021/03/12 04:39:49;;;;;;;41.23;25.12;;;;;;;2.08;61.86;96797.68;1723322;82;21377;-77
2021/03/12 04:42:19;;;;;;;43.10;21.82;;;;;;;2.07;61.53;96790.80;1692624;83;21167;-79
2021/03/12 04:44:50;;;;;;;41.80;24.20;;;;;;;1.99;61.61;96796.84;1692276;83;21275;-76
2021/03/12 04:47:21;;;;;;;32.08;18.67;;;;;;;1.95;63.38;96803.10;1735442;82;21153;-76
2021/03/12 04:49:53;;;;;;;35.25;20.30;;;;;;;1.90;65.89;96802.03;1718162;82;21152;-77
2021/03/12 04:52:22;;;;;;;26.73;15.10;;;;;;;1.84;64.90;96798.45;1719183;83;21114;-76
2021/03/12 04:54:50;;;;;;;34.18;21.15;;;;;;;1.72;64.75;96794.68;1710629;82;21138;-77
2021/03/12 04:57:20;;;;;;;43.68;25.40;;;;;;;1.69;65.54;96796.16;1712332;83;21165;-78
2021/03/12 04:59:48;;;;;;;38.53;23.35;;;;;;;1.69;66.50;96789.66;1720163;83;21658;-77
2021/03/12 05:02:25;;;;;;;29.72;17.67;;;;;;;1.62;65.42;96790.41;1721232;83;21296;-80
2021/03/12 05:04:56;;;;;;;29.57;18.07;;;;;;;1.54;65.89;96794.67;1723922;82;21149;-78
2021/03/12 05:07:25;;;;;;;31.25;18.32;;;;;;;1.45;69.07;96793.82;1721919;83;21117;-79
2021/03/12 05:10:11;;;;;;;36.73;23.38;;;;;;;1.35;66.80;96800.37;1771887;79;25398;-78
2021/03/12 05:12:39;;;;;;;22.07;12.58;;;;;;;1.19;68.41;96795.92;1700473;83;21347;-78
2021/03/12 05:15:10;;;;;;;29.45;19.70;;;;;;;1.09;68.63;96793.37;1722091;83;21613;-78
2021/03/12 05:17:39;;;;;;;32.58;15.18;;;;;;;0.97;70.64;96788.30;1732323;82;21292;-77
2021/03/12 05:20:10;;;;;;;20.87;9.57;;;;;;;0.96;70.53;96791.80;1737115;82;21274;-79
2021/03/12 05:22:38;;;;;;;24.10;13.35;;;;;;;0.92;73.63;96791.11;1687457;85;21552;-78
2021/03/12 05:25:08;;;;;;;35.60;21.37;;;;;;;0.75;73.79;96781.97;1706388;83;21683;-79
2021/03/12 05:27:37;;;;;;;42.25;23.83;;;;;;;0.62;75.21;96779.92;1687463;84;21121;-78
2021/03/12 05:30:08;;;;;;;28.83;16.77;;;;;;;0.62;74.04;96781.22;1683195;84;21274;-77
2021/03/12 05:32:37;;;;;;;31.93;18.23;;;;;;;0.68;73.75;96784.00;1694571;84;21144;-78
2021/03/12 05:35:10;;;;;;;42.38;27.62;;;;;;;0.70;73.48;96793.86;1672888;84;21198;-78
2021/03/12 05:37:42;;;;;;;38.50;25.85;;;;;;;0.74;77.56;96787.59;1664094;84;21140;-79
2021/03/12 05:40:13;;;;;;;26.00;15.30;;;;;;;0.84;73.22;96789.77;1678662;84;21151;-78
2021/03/12 05:42:43;;;;;;;29.13;18.07;;;;;;;0.87;73.84;96784.01;1690847;84;21167;-78
2021/03/12 05:45:13;;;;;;;25.52;15.48;;;;;;;0.83;73.87;96782.45;1675774;85;21149;-77
2021/03/12 05:47:43;;;;;;;36.03;22.87;;;;;;;0.85;72.75;96779.34;1637355;87;21183;-78
2021/03/12 05:50:12;;;;;;;37.42;22.95;;;;;;;0.88;73.00;96773.98;1661149;85;22306;-79
2021/03/12 05:52:47;;;;;;;23.85;12.33;;;;;;;0.93;73.75;96777.66;1670744;85;21160;-78
2021/03/12 05:55:17;;;;;;;39.80;26.20;;;;;;;1.00;73.48;96775.63;1696516;83;21148;-77
2021/03/12 05:57:47;;;;;;;29.57;17.10;;;;;;;0.91;74.32;96779.52;1706888;83;21231;-78
2021/03/12 06:00:20;;;;;;;33.40;18.62;;;;;;;0.91;75.48;96776.92;1668240;85;21608;-78
2021/03/12 06:02:52;;;;;;;28.62;13.35;;;;;;;0.82;75.42;96777.34;1695051;85;21147;-79
2021/03/12 06:05:23;;;;;;;20.63;11.13;;;;;;;0.84;76.41;96779.39;1693888;83;21147;-78
2021/03/12 06:07:52;;;;;;;26.30;10.93;;;;;;;0.78;75.91;96770.98;1649259;85;21147;-76
2021/03/12 06:10:21;;;;;;;24.32;13.13;;;;;;;0.85;76.79;96768.95;1676732;85;21167;-78
2021/03/12 06:12:55;;;;;;;30.15;18.40;;;;;;;0.73;78.53;96773.41;1663879;85;21167;-75
2021/03/12 06:15:40;;;;;;;21.15;11.78;;;;;;;0.67;77.58;96763.32;1664349;85;21345;-77
2021/03/12 06:18:25;;;;;;;35.27;17.87;;;;;;;0.68;78.17;96755.93;1663550;85;21627;-77
2021/03/12 06:21:30;;;;;;;43.52;27.22;;;;;;;0.68;78.67;96753.33;1671773;85;22517;-77
2021/03/12 06:23:59;;;;;;;30.23;17.85;;;;;;;0.66;78.14;96748.19;1684729;85;21211;-76
2021/03/12 06:26:49;;;;;;;41.10;24.55;;;;;;;0.76;77.29;96749.45;1684405;85;21189;-77
2021/03/12 06:29:38;;;;;;;27.32;15.93;;;;;;;0.85;77.69;96750.80;1666490;85;21132;-79
2021/03/12 06:32:55;;;;;;;39.98;25.27;;;;;;;1.02;76.47;96740.89;1799986;79;24629;-78
2021/03/12 06:35:27;;;;;;;36.98;22.42;;;;;;;1.04;77.93;96719.60;1797333;78;21121;-78
2021/03/12 06:38:02;;;;;;;36.95;20.85;;;;;;;1.19;77.69;96707.64;1791292;78;21597;-77
2021/03/12 06:40:40;;;;;;;43.20;26.73;;;;;;;1.31;75.62;96693.67;1824063;78;21704;-76
2021/03/12 06:43:19;;;;;;;36.30;22.50;;;;;;;1.43;76.95;96679.23;1791424;80;21302;-78
2021/03/12 06:46:00;;;;;;;41.30;23.42;;;;;;;1.64;75.29;96668.20;1779227;80;21072;-78
2021/03/12 06:48:37;;;;;;;36.68;24.40;;;;;;;1.74;74.06;96677.21;1791599;78;21249;-77
2021/03/12 06:51:24;;;;;;;24.02;14.03;;;;;;;1.75;74.05;96680.19;1829563;78;21278;-77
2021/03/12 06:53:58;;;;;;;23.32;14.70;;;;;;;1.82;74.14;96670.33;1806077;78;21225;-77
2021/03/12 06:56:29;;;;;;;35.48;21.57;;;;;;;1.79;75.06;96660.94;1795862;79;21100;-78
2021/03/12 06:59:15;;;;;;;28.92;19.15;;;;;;;1.79;74.95;96650.98;1794562;79;24930;-78
2021/03/12 07:02:06;;;;;;;32.80;18.87;;;;;;;1.81;74.61;96651.28;1762342;80;21160;-77
2021/03/12 07:04:38;;;;;;;32.60;20.05;;;;;;;1.86;74.55;96659.69;1796473;79;21267;-79
2021/03/12 07:07:14;;;;;;;34.25;21.73;;;;;;;2.00;74.09;96640.77;1724905;83;21240;-77
2021/03/12 07:09:47;;;;;;;30.62;17.23;;;;;;;2.25;73.67;96637.31;1731223;83;21256;-78
2021/03/12 07:12:25;;;;;;;23.45;15.45;;;;;;;2.46;72.85;96633.52;1726226;83;21262;-79
2021/03/12 07:14:59;;;;;;;30.97;21.70;;;;;;;2.56;72.46;96635.62;1712808;82;21155;-77
2021/03/12 07:17:29;;;;;;;32.80;21.82;;;;;;;2.47;72.42;96635.20;1696621;84;21724;-78
2021/03/12 07:19:59;;;;;;;36.28;21.62;;;;;;;2.52;72.08;96633.65;1709759;84;21184;-77
2021/03/12 07:22:30;;;;;;;27.17;17.40;;;;;;;2.59;71.83;96631.55;1712064;82;21122;-76
2021/03/12 07:25:03;;;;;;;30.70;19.73;;;;;;;2.75;71.50;96631.06;1722146;83;21156;-77
2021/03/12 07:27:33;;;;;;;33.83;18.02;;;;;;;2.80;70.96;96631.66;1694631;82;21292;-77
2021/03/12 07:30:07;;;;;;;30.70;19.82;;;;;;;2.89;70.74;96630.77;1736239;82;21186;-80
2021/03/12 07:32:39;;;;;;;35.05;20.37;;;;;;;3.15;71.13;96631.03;1716870;83;21274;-78
2021/03/12 07:35:08;;;;;;;30.65;20.40;;;;;;;3.51;71.25;96638.92;1729547;83;21276;-78
2021/03/12 07:37:53;;;;;;;35.08;20.35;;;;;;;3.85;70.41;96636.92;1704477;83;21174;-78
2021/03/12 07:40:24;;;;;;;32.67;21.23;;;;;;;4.20;70.35;96647.78;1747137;82;21153;-80
2021/03/12 07:42:55;;;;;;;28.80;19.10;;;;;;;4.48;69.68;96658.30;1722577;82;21218;-78
2021/03/12 07:45:29;;;;;;;31.12;19.55;;;;;;;4.67;68.61;96656.20;1708872;83;21155;-78
2021/03/12 07:48:14;;;;;;;27.40;17.27;;;;;;;4.91;67.99;96656.86;1704791;83;21144;-78
2021/03/12 07:51:15;;;;;;;27.15;19.60;;;;;;;4.91;65.74;96665.17;1817509;78;24774;-78
2021/03/12 07:53:56;;;;;;;16.82;9.73;;;;;;;4.76;66.27;96674.83;1806606;78;21222;-80
2021/03/12 07:56:53;;;;;;;26.57;14.45;;;;;;;4.62;65.49;96680.92;1803956;78;21731;-79
2021/03/12 07:59:51;;;;;;;25.52;16.32;;;;;;;4.37;65.77;96675.45;1804105;79;21264;-78
2021/03/12 08:02:56;;;;;;;25.65;17.85;;;;;;;4.15;66.34;96688.13;1803918;78;21239;-78
2021/03/12 08:05:41;;;;;;;23.47;16.17;;;;;;;4.12;65.78;96693.08;1809717;78;21304;-79
2021/03/12 08:08:41;;;;;;;23.32;13.30;;;;;;;3.98;65.93;96696.52;1811627;78;21249;-78
2021/03/12 08:11:36;;;;;;;23.40;15.28;;;;;;;3.94;65.60;96688.97;1799322;80;21143;-79
2021/03/12 08:14:18;;;;;;;16.20;9.60;;;;;;;3.84;65.45;96692.13;1809395;78;21259;-78
2021/03/12 08:17:04;;;;;;;22.48;13.32;;;;;;;3.79;65.29;96705.06;1830384;78;21291;-79
2021/03/12 08:19:37;;;;;;;15.58;8.33;;;;;;;3.71;65.37;96704.23;1832151;78;21137;-79
2021/03/12 08:22:31;;;;;;;23.47;14.73;;;;;;;3.77;65.30;96718.20;1809581;78;21283;-83
2021/03/12 08:25:03;;;;;;;21.95;15.00;;;;;;;3.78;65.21;96721.63;1791886;78;21262;-78
2021/03/12 08:27:44;;;;;;;15.65;9.38;;;;;;;3.80;64.48;96712.81;1775384;81;21700;-81
2021/03/12 08:30:37;;;;;;;23.52;14.07;;;;;;;3.82;64.17;96716.14;1817490;78;21272;-80
2021/03/12 08:33:11;;;;;;;24.65;15.35;;;;;;;3.77;65.46;96729.93;1828229;78;21307;-78
2021/03/12 08:35:42;;;;;;;21.17;12.68;;;;;;;3.85;65.12;96726.88;1803752;78;21802;-78
2021/03/12 08:38:35;;;;;;;21.02;10.78;;;;;;;3.85;63.94;96742.52;1825943;78;21735;-80
2021/03/12 08:41:20;;;;;;;25.10;15.08;;;;;;;3.84;63.45;96753.40;1823208;78;21149;-79
2021/03/12 08:43:55;;;;;;;19.80;13.20;;;;;;;3.74;64.24;96745.73;1809592;77;21166;-79
2021/03/12 08:46:41;;;;;;;25.68;16.48;;;;;;;3.73;64.46;96761.86;1816652;78;21138;-76
2021/03/12 08:49:12;;;;;;;31.42;14.45;;;;;;;3.67;65.08;96746.55;1796862;79;21224;-78
2021/03/12 08:51:40;;;;;;;22.32;11.33;;;;;;;3.67;66.02;96743.95;1760247;80;21172;-78
2021/03/12 08:54:14;;;;;;;26.35;15.23;;;;;;;3.68;66.22;96739.11;1788997;79;21176;-78
2021/03/12 08:56:43;;;;;;;18.48;9.75;;;;;;;3.72;67.94;96734.55;1760172;80;21168;-77
2021/03/12 08:59:11;;;;;;;10.68;6.83;;;;;;;3.87;66.44;96738.03;1787936;80;21579;-77
2021/03/12 09:02:24;;;;;;;21.23;12.85;;;;;;;3.77;66.61;96749.93;1805680;77;24304;-76
2021/03/12 09:04:57;;;;;;;18.67;11.33;;;;;;;3.72;66.82;96742.38;1758926;81;21949;-78
2021/03/12 09:07:30;;;;;;;25.80;15.03;;;;;;;3.85;66.88;96745.13;1727040;83;21171;-75
2021/03/12 09:10:27;;;;;;;25.92;15.78;;;;;;;3.97;66.47;96737.87;1742995;81;21195;-77
2021/03/12 09:13:01;;;;;;;30.88;16.25;;;;;;;4.18;67.39;96744.87;1738976;82;21159;-76
2021/03/12 09:15:29;;;;;;;26.27;15.75;;;;;;;4.52;66.20;96738.06;1730638;81;21598;-76
2021/03/12 09:17:59;;;;;;;15.95;11.60;;;;;;;4.79;66.02;96730.30;1735158;81;21201;-76
2021/03/12 09:20:28;;;;;;;23.60;13.32;;;;;;;5.12;65.22;96736.92;1759898;81;21207;-75
2021/03/12 09:22:59;;;;;;;23.25;15.45;;;;;;;5.27;64.35;96731.18;1773078;81;21261;-78
2021/03/12 09:25:32;;;;;;;20.02;13.58;;;;;;;5.53;64.47;96732.55;1755555;81;21160;-80
2021/03/12 09:28:08;;;;;;;21.33;14.53;;;;;;;5.79;62.89;96746.53;1772939;80;21159;-78
2021/03/12 09:30:45;;;;;;;;;;;;;;;5.71;61.20;96734.89;1768004;81;21278;-78
2021/03/12 09:33:34;;;;;;;15.32;8.95;;;;;;;5.74;62.09;96737.31;1769109;80;20202;-79
2021/03/12 09:36:37;;;;;;;11.97;7.20;;;;;;;5.83;61.66;96737.19;1710941;81;21235;-79
2021/03/12 09:39:22;;;;;;;21.50;11.78;;;;;;;5.66;61.31;96733.89;1765726;81;21150;-78
2021/03/12 09:42:04;;;;;;;22.05;11.57;;;;;;;5.53;61.94;96732.55;1735136;82;21159;-76
2021/03/12 09:44:31;;;;;;;22.02;14.18;;;;;;;5.44;62.06;96735.32;1711909;84;21175;-77
2021/03/12 09:47:09;;;;;;;17.70;10.43;;;;;;;5.30;62.36;96749.73;1733011;82;21178;-77
2021/03/12 10:00:25;;;;;;;22.17;9.25;;;;;;;4.57;64.40;96762.13;1739699;81;27151;-78
2021/03/12 10:02:58;;;;;;;25.70;13.00;;;;;;;4.53;64.13;96762.79;1703105;84;21306;-77
2021/03/12 10:16:24;;;;;;;23.18;12.90;;;;;;;4.58;64.84;96750.76;1833471;77;25754;-75
2021/03/12 10:18:57;;;;;;;21.23;12.98;;;;;;;4.67;64.50;96751.50;1739550;82;21174;-76
2021/03/12 10:21:26;;;;;;;21.27;13.68;;;;;;;4.57;65.37;96759.52;1727260;81;21156;-76
2021/03/12 10:23:53;;;;;;;20.27;11.90;;;;;;;4.45;65.03;96731.55;1754899;81;21196;-78
2021/03/12 10:26:23;;;;;;;22.73;14.68;;;;;;;4.81;64.74;96765.00;1733575;82;21171;-78
2021/03/12 10:28:52;;;;;;;24.52;13.18;;;;;;;4.69;64.81;96768.36;1732437;83;21239;-76
2021/03/12 10:31:20;;;;;;;21.85;14.00;;;;;;;4.66;64.85;96764.17;1732956;83;21274;-75
2021/03/12 10:33:50;;;;;;;24.65;15.28;;;;;;;4.62;65.05;96770.51;1756010;82;21132;-77
2021/03/12 10:36:25;;;;;;;21.97;13.93;;;;;;;4.54;65.02;96768.83;1735150;82;21167;-75
2021/03/12 10:38:54;;;;;;;17.77;7.37;;;;;;;4.47;65.15;96781.41;1734542;82;21597;-76
2021/03/12 10:41:25;;;;;;;22.13;14.78;;;;;;;4.38;65.99;96785.44;1738681;82;21274;-75
2021/03/12 10:44:04;;;;;;;31.07;14.45;;;;;;;4.25;66.18;96778.44;1727780;82;21186;-78
2021/03/12 10:46:34;;;;;;;31.62;15.98;;;;;;;4.28;66.55;96773.88;1714726;83;21298;-76
2021/03/12 10:49:03;;;;;;;27.45;15.20;;;;;;;4.36;66.36;96780.77;1721154;83;21176;-76
2021/03/12 10:51:39;;;;;;;27.73;16.57;;;;;;;4.53;66.30;96769.77;1713726;83;21598;-75
2021/03/12 10:54:12;;;;;;;34.05;16.40;;;;;;;4.67;66.30;96760.64;1719606;83;21254;-75
2021/03/12 10:56:47;;;;;;;21.33;13.10;;;;;;;4.86;65.73;96751.66;1725674;83;21318;-77
2021/03/12 10:59:16;;;;;;;17.67;10.50;;;;;;;5.09;65.24;96748.04;1712688;83;21363;-74
2021/03/12 11:01:48;;;;;;;30.15;17.50;;;;;;;5.27;64.81;96739.50;1712825;83;21370;-75
2021/03/12 11:04:18;;;;;;;18.37;10.50;;;;;;;5.39;65.04;96745.70;1715626;83;21420;-75
2021/03/12 11:06:46;;;;;;;29.65;17.32;;;;;;;5.59;64.17;96747.86;1719737;83;21187;-76
2021/03/12 11:09:19;;;;;;;21.37;15.45;;;;;;;5.63;64.44;96747.19;1725815;83;21155;-75
2021/03/12 11:11:54;;;;;;;17.10;11.15;;;;;;;5.82;64.01;96740.25;1727001;83;21279;-76
2021/03/12 11:14:23;;;;;;;21.15;13.35;;;;;;;5.90;63.62;96739.75;1735684;82;21121;-77
2021/03/12 11:16:51;;;;;;;26.15;15.58;;;;;;;5.98;63.54;96734.84;1735621;83;21578;-77
2021/03/12 11:19:19;;;;;;;16.48;9.78;;;;;;;6.06;63.51;96741.72;1735730;83;21129;-77
2021/03/12 11:21:48;;;;;;;31.68;17.10;;;;;;;6.22;63.16;96740.67;1757901;81;21204;-77
2021/03/12 11:24:16;;;;;;;33.83;17.20;;;;;;;6.01;63.30;96740.36;1733196;83;21325;-76
2021/03/12 11:26:43;;;;;;;30.08;17.82;;;;;;;6.08;63.31;96739.84;1735896;83;21234;-75
2021/03/12 11:29:12;;;;;;;26.27;17.82;;;;;;;6.09;63.22;96728.44;1731159;82;21147;-75
2021/03/12 11:31:41;;;;;;;28.62;17.15;;;;;;;6.02;63.71;96723.27;1712351;81;21175;-75
2021/03/12 11:34:10;;;;;;;30.23;15.60;;;;;;;6.17;63.55;96716.13;1733738;83;21165;-77
2021/03/12 11:36:37;;;;;;;24.30;16.82;;;;;;;6.28;63.16;96709.31;1707027;83;21182;-76
2021/03/12 11:39:07;;;;;;;24.85;15.43;;;;;;;6.43;63.00;96713.96;1731513;81;21199;-76
2021/03/12 11:41:37;;;;;;;26.12;12.37;;;;;;;6.59;62.86;96720.28;1721920;81;21180;-75
2021/03/12 11:44:06;;;;;;;26.48;15.63;;;;;;;6.76;62.32;96716.48;1749181;81;21206;-79
2021/03/12 11:46:36;;;;;;;18.10;10.70;;;;;;;6.66;62.21;96717.13;1751009;81;21310;-73
2021/03/12 11:49:07;;;;;;;27.17;16.93;;;;;;;6.70;62.21;96715.13;1698764;84;21366;-76
2021/03/12 11:51:38;;;;;;;28.65;15.08;;;;;;;6.66;62.41;96715.83;1697972;84;21168;-76
2021/03/12 11:54:06;;;;;;;23.12;15.83;;;;;;;6.76;62.24;96729.09;1707183;83;21138;-80
2021/03/12 11:56:34;;;;;;;19.55;11.80;;;;;;;6.63;62.04;96707.34;1740960;81;21178;-78
2021/03/12 11:59:03;;;;;;;25.88;14.78;;;;;;;6.69;62.05;96726.06;1729232;83;21155;-77
2021/03/12 12:01:34;;;;;;;12.28;7.30;;;;;;;6.62;62.16;96715.66;1699293;84;21171;-79
2021/03/12 12:04:01;;;;;;;21.60;14.18;;;;;;;6.60;62.45;96718.03;1709742;84;21200;-78
2021/03/12 12:06:29;;;;;;;23.38;13.00;;;;;;;6.58;62.32;96718.15;1710331;84;21164;-79
2021/03/12 12:08:56;;;;;;;23.12;13.78;;;;;;;6.44;62.65;96715.19;1713642;84;21200;-78
2021/03/12 12:11:24;;;;;;;28.57;16.75;;;;;;;6.44;62.65;96715.19;1716644;83;21157;-78
2021/03/12 12:13:52;;;;;;;28.10;16.75;;;;;;;6.44;62.78;96721.73;1733782;82;21792;-79
2021/03/12 12:16:20;;;;;;;32.20;18.32;;;;;;;6.25;62.59;96682.44;1717430;82;21226;-77
2021/03/12 12:18:52;;;;;;;23.62;16.00;;;;;;;6.50;62.92;96718.67;1721244;83;21311;-78